Menalon — SXCH — position and weather

sailwx.info

Track history (hours):
 
Tides and Currents Weather Stations Pressure Air Temp Water Temp Dewpoint Dewpoint Depression Visibility Wind Speed Wind Dir Waves Ship Positions

Menalon

Last reported at 2017-Jul-21 19:00 UTC. Time now 2017-Jul-21 19:00 UTC.
Position N 37°53' E 023°32'.

Length 83 m; draft 4.2 m.

Type: Tanker. MMSI: 239741000.

Date/timePositionNaut miles runAvg speedWind from/ knotsBaromVisibWave heightAir tempDewpointWater temp
2017-Jul-21 19:00N 37°53' E 023°32'0 0.0
2017-Jul-21 18:30N 37°53' E 023°32'0 0.0
2017-Jul-21 18:00N 37°53' E 023°32'0 0.0
2017-Jul-21 17:30N 37°53' E 023°32'0 0.0
2017-Jul-21 17:00N 37°53' E 023°32'1 2.0
2017-Jul-21 16:30N 37°54' E 023°33'2 4.5
2017-Jul-21 16:00N 37°56' E 023°34'0 0.0
2017-Jul-21 15:30N 37°56' E 023°34'0 0.0
2017-Jul-21 15:00N 37°56' E 023°34'0 0.0
2017-Jul-21 14:30N 37°56' E 023°34'0 0.0
2017-Jul-21 14:00N 37°56' E 023°34'0 0.0
2017-Jul-21 13:30N 37°56' E 023°34'0 0.0
2017-Jul-21 13:00N 37°56' E 023°34'0 0.0
2017-Jul-21 12:30N 37°56' E 023°34'0 0.0
2017-Jul-21 12:00N 37°56' E 023°34'0 0.0
2017-Jul-21 11:30N 37°56' E 023°34'0 0.0
2017-Jul-21 11:00N 37°56' E 023°34'0 0.0
2017-Jul-21 10:30N 37°56' E 023°34'0 0.0
2017-Jul-21 10:00N 37°56' E 023°34'0 0.0
2017-Jul-21 09:30N 37°56' E 023°34'0 0.0
2017-Jul-21 09:00N 37°56' E 023°34'0 0.1
2017-Jul-21 08:30N 37°56' E 023°34'0 0.0
2017-Jul-21 08:00N 37°56' E 023°34'0 0.0
2017-Jul-21 07:30N 37°56' E 023°34'0 0.0
2017-Jul-21 07:00N 37°56' E 023°34'0 0.0
2017-Jul-21 06:30N 37°56' E 023°34'0 0.0
2017-Jul-21 06:00N 37°56' E 023°34'1 2.8
2017-Jul-21 05:30N 37°57' E 023°34'4 8.0
2017-Jul-21 05:00N 38°01' E 023°33'1 1.7
2017-Jul-21 04:30N 38°02' E 023°32'0 0.2
2017-Jul-21 04:00N 38°02' E 023°32'3 5.3
2017-Jul-21 03:30N 38°02' E 023°36'0 0.1
2017-Jul-21 03:00N 38°02' E 023°36'0 0.0
2017-Jul-21 02:30N 38°02' E 023°36'0 0.0
2017-Jul-21 02:00N 38°02' E 023°36'0 0.0
2017-Jul-21 01:30N 38°02' E 023°36'0 0.0
2017-Jul-21 01:00N 38°02' E 023°36'0 0.0
2017-Jul-21 00:30N 38°02' E 023°36'0 0.0
2017-Jul-21 00:00N 38°02' E 023°36'0 0.0
2017-Jul-20 23:30N 38°02' E 023°36'0 0.0
2017-Jul-20 23:00N 38°02' E 023°36'0 0.0
2017-Jul-20 22:30N 38°02' E 023°36'0 0.0
2017-Jul-20 22:00N 38°02' E 023°36'0 0.0
2017-Jul-20 21:30N 38°02' E 023°36'1 2.2
2017-Jul-20 21:00N 38°02' E 023°34'2 3.7
2017-Jul-20 20:30N 38°02' E 023°32'0 0.0
2017-Jul-20 20:00N 38°02' E 023°32'0 0.0
2017-Jul-20 19:30N 38°02' E 023°32'0 0.1
2017-Jul-20 19:00N 38°02' E 023°32'0 0.0
2017-Jul-20 18:30N 38°02' E 023°32'0 0.0
2017-Jul-20 18:00N 38°02' E 023°32'0 0.0
2017-Jul-20 17:30N 38°02' E 023°32'0 0.0
2017-Jul-20 17:00N 38°02' E 023°32'0 0.0
2017-Jul-20 16:30N 38°02' E 023°32'0 0.0
2017-Jul-20 16:00N 38°02' E 023°32'0 0.0
2017-Jul-20 15:30N 38°02' E 023°32'0 0.0
2017-Jul-20 15:00N 38°02' E 023°32'3 3.2
2017-Jul-20 14:00N 37°59' E 023°33'3 6.1
2017-Jul-20 13:30N 37°56' E 023°34'0 0.4
2017-Jul-20 13:00N 37°55' E 023°34'0 0.0
2017-Jul-20 12:30N 37°55' E 023°34'0 0.0
2017-Jul-20 12:00N 37°55' E 023°34'0 0.0
2017-Jul-20 11:30N 37°55' E 023°34'0 0.0
2017-Jul-20 11:00N 37°55' E 023°34'0 0.0
2017-Jul-20 10:30N 37°55' E 023°34'0 0.0
2017-Jul-20 10:00N 37°55' E 023°34'0 0.0
2017-Jul-20 09:30N 37°55' E 023°34'0 0.0
2017-Jul-20 09:00N 37°55' E 023°34'0 0.0
2017-Jul-20 08:30N 37°55' E 023°34'0 0.0
2017-Jul-20 08:00N 37°55' E 023°34'0 0.0
2017-Jul-20 07:30N 37°55' E 023°34'0 0.0
2017-Jul-20 07:00N 37°55' E 023°34'0 0.0
2017-Jul-20 06:30N 37°55' E 023°34'0 0.0
2017-Jul-20 06:00N 37°55' E 023°34'0 0.0
2017-Jul-20 05:30N 37°55' E 023°34'0 0.0
2017-Jul-20 05:00N 37°55' E 023°34'0 0.0
2017-Jul-20 04:30N 37°55' E 023°34'0 0.0
2017-Jul-20 04:00N 37°55' E 023°34'0 0.0
2017-Jul-20 03:30N 37°55' E 023°34'0 0.0
2017-Jul-20 03:00N 37°55' E 023°34'0 0.0
2017-Jul-20 02:30N 37°55' E 023°34'1 2.8
2017-Jul-20 02:00N 37°54' E 023°33'4 8.7
2017-Jul-20 01:30N 37°50' E 023°31'0 0.2
2017-Jul-20 01:00N 37°50' E 023°31'0 0.0
2017-Jul-20 00:30N 37°50' E 023°31'0 0.0
2017-Jul-20 00:00N 37°50' E 023°31'0 0.0
2017-Jul-19 23:30N 37°50' E 023°31'0 0.0
2017-Jul-19 23:00N 37°50' E 023°31'0 0.1
2017-Jul-19 22:30N 37°50' E 023°31'0 0.0
2017-Jul-19 22:00N 37°50' E 023°31'0 0.0
2017-Jul-19 21:30N 37°50' E 023°31'0 0.0
2017-Jul-19 21:00N 37°50' E 023°31'0 0.1
2017-Jul-19 20:30N 37°50' E 023°31'0 0.0
2017-Jul-19 20:00N 37°50' E 023°31'0 0.0
2017-Jul-19 19:30N 37°50' E 023°31'0 0.0
2017-Jul-19 19:00N 37°50' E 023°31'0 0.0
2017-Jul-19 18:30N 37°50' E 023°31'0 0.0
2017-Jul-19 18:00N 37°50' E 023°31'0 0.0
2017-Jul-19 17:30N 37°50' E 023°31'0 0.0
2017-Jul-19 17:00N 37°50' E 023°31'0 0.0
2017-Jul-19 16:30N 37°50' E 023°31'0 0.0
2017-Jul-19 16:00N 37°50' E 023°31'0 0.0
2017-Jul-19 15:30N 37°50' E 023°31'0 0.0
2017-Jul-19 15:00N 37°50' E 023°31'0 0.0
2017-Jul-19 14:30N 37°50' E 023°31'0 0.0
2017-Jul-19 14:00N 37°50' E 023°31'0 0.0
2017-Jul-19 13:30N 37°50' E 023°31'0 0.1
2017-Jul-19 13:00N 37°50' E 023°31'0 0.4
2017-Jul-19 12:30N 37°50' E 023°31'4 8.5
2017-Jul-19 12:00N 37°54' E 023°33'4 8.4
2017-Jul-19 11:30N 37°57' E 023°36'0 0.2
2017-Jul-19 11:00N 37°57' E 023°36'0 0.0
2017-Jul-19 10:30N 37°57' E 023°36'0 0.0
2017-Jul-19 10:00N 37°57' E 023°36'0 0.0
2017-Jul-19 09:30N 37°57' E 023°36'0 0.0
2017-Jul-19 09:00N 37°57' E 023°36'0 0.0
2017-Jul-19 08:30N 37°57' E 023°36'0 0.0
2017-Jul-19 08:00N 37°57' E 023°36'0 0.8
2017-Jul-19 07:30N 37°57' E 023°36'3 5.5
2017-Jul-19 07:00N 37°58' E 023°33'4 7.4
2017-Jul-19 06:30N 38°02' E 023°35'0 0.3
2017-Jul-19 06:00N 38°02' E 023°35'0 0.0
2017-Jul-19 05:30N 38°02' E 023°35'0 0.0
2017-Jul-19 05:00N 38°02' E 023°35'0 0.0
2017-Jul-19 04:30N 38°02' E 023°35'0 0.0
2017-Jul-19 04:00N 38°02' E 023°35'0 0.0
2017-Jul-19 03:30N 38°02' E 023°35'0 0.0
2017-Jul-19 03:00N 38°02' E 023°35'0 0.0
2017-Jul-19 02:30N 38°02' E 023°35'1 1.2
2017-Jul-19 02:00N 38°02' E 023°36'0 0.0
2017-Jul-19 01:30N 38°02' E 023°36'0 0.0
2017-Jul-19 01:00N 38°02' E 023°36'0 0.0
2017-Jul-19 00:30N 38°02' E 023°36'0 0.0
2017-Jul-19 00:00N 38°02' E 023°36'0 0.0
2017-Jul-18 23:30N 38°02' E 023°36'0 0.0
2017-Jul-18 23:00N 38°02' E 023°36'0 0.0
2017-Jul-18 22:30N 38°02' E 023°36'0 0.0
2017-Jul-18 22:00N 38°02' E 023°36'0 0.0
2017-Jul-18 21:30N 38°02' E 023°36'0 0.0
2017-Jul-18 21:00N 38°02' E 023°36'0 0.6
2017-Jul-18 20:30N 38°02' E 023°35'1 1.4
2017-Jul-18 20:00N 38°01' E 023°35'0 0.1
2017-Jul-18 19:30N 38°01' E 023°35'0 0.0
2017-Jul-18 19:00N 38°01' E 023°35'0 0.0
2017-Jul-18 18:30N 38°01' E 023°35'0 0.0
2017-Jul-18 18:00N 38°01' E 023°35'0 0.0
2017-Jul-18 17:30N 38°01' E 023°35'0 0.0
2017-Jul-18 17:00N 38°01' E 023°35'0 0.0
2017-Jul-18 16:30N 38°01' E 023°35'0 0.0
2017-Jul-18 16:00N 38°01' E 023°35'0 0.0
2017-Jul-18 15:30N 38°01' E 023°35'0 0.0
2017-Jul-18 15:00N 38°01' E 023°35'0 0.0
2017-Jul-18 14:00N 38°01' E 023°35'0 0.2
2017-Jul-18 13:30N 38°01' E 023°35'0 0.4
2017-Jul-18 13:00N 38°01' E 023°35'0 0.0
2017-Jul-18 12:30N 38°01' E 023°35'0 0.0
2017-Jul-18 12:00N 38°01' E 023°35'0 0.0
2017-Jul-18 11:30N 38°01' E 023°35'0 0.1
2017-Jul-18 11:00N 38°01' E 023°35'3 5.7
2017-Jul-18 10:30N 37°59' E 023°33'3 5.8
2017-Jul-18 10:00N 37°56' E 023°34'0 0.8
2017-Jul-18 09:30N 37°56' E 023°34'0 0.0
2017-Jul-18 09:00N 37°56' E 023°34'0 0.0
2017-Jul-18 08:30N 37°56' E 023°34'0 0.0
2017-Jul-18 08:00N 37°56' E 023°34'0 0.0
2017-Jul-18 07:30N 37°56' E 023°34'0 0.0
2017-Jul-18 07:00N 37°56' E 023°34'0 0.0
2017-Jul-18 06:30N 37°56' E 023°34'0 0.0
2017-Jul-18 06:00N 37°56' E 023°34'0 0.0
2017-Jul-18 05:30N 37°56' E 023°34'0 0.0
2017-Jul-18 05:00N 37°56' E 023°34'0 0.0
2017-Jul-18 04:30N 37°56' E 023°34'0 0.0
2017-Jul-18 04:00N 37°56' E 023°34'0 0.0
2017-Jul-18 03:30N 37°56' E 023°34'0 0.0
2017-Jul-18 03:00N 37°56' E 023°34'0 0.0
2017-Jul-18 02:30N 37°56' E 023°34'0 0.0
2017-Jul-18 02:00N 37°56' E 023°34'0 0.0
2017-Jul-18 01:30N 37°56' E 023°34'0 0.0
2017-Jul-18 01:00N 37°56' E 023°34'0 0.0
2017-Jul-18 00:30N 37°56' E 023°34'0 0.0
2017-Jul-18 00:00N 37°56' E 023°34'0 0.0
2017-Jul-17 23:30N 37°56' E 023°34'0 0.0
2017-Jul-17 23:00N 37°56' E 023°34'0 0.0
2017-Jul-17 22:30N 37°56' E 023°34'0 0.0
2017-Jul-17 22:00N 37°56' E 023°34'0 0.0
2017-Jul-17 21:30N 37°56' E 023°34'0 0.0
2017-Jul-17 21:00N 37°56' E 023°34'0 0.0
2017-Jul-17 20:30N 37°56' E 023°34'0 0.0
2017-Jul-17 20:00N 37°56' E 023°34'0 0.0
2017-Jul-17 19:30N 37°56' E 023°34'0 0.0
2017-Jul-17 19:00N 37°56' E 023°34'0 0.0
2017-Jul-17 18:30N 37°56' E 023°34'0 0.0
2017-Jul-17 18:00N 37°56' E 023°34'0 0.0
2017-Jul-17 17:30N 37°56' E 023°34'0 0.0
2017-Jul-17 17:00N 37°56' E 023°34'0 0.0
2017-Jul-17 16:30N 37°56' E 023°34'0 0.0
2017-Jul-17 16:00N 37°56' E 023°34'0 0.1
2017-Jul-17 15:30N 37°56' E 023°34'0 0.1
2017-Jul-17 15:00N 37°56' E 023°34'0 0.1
2017-Jul-17 14:30N 37°56' E 023°34'2 3.8
2017-Jul-17 14:00N 37°57' E 023°35'0 0.0
2017-Jul-17 13:30N 37°57' E 023°35'0 0.0
2017-Jul-17 13:00N 37°57' E 023°35'0 0.0
2017-Jul-17 12:30N 37°57' E 023°35'0 0.0
2017-Jul-17 12:00N 37°57' E 023°35'0 0.0
2017-Jul-17 11:30N 37°57' E 023°35'0 0.0
2017-Jul-17 11:00N 37°57' E 023°35'0 0.0
2017-Jul-17 10:30N 37°57' E 023°35'0 0.0
2017-Jul-17 10:00N 37°57' E 023°35'0 0.0
2017-Jul-17 09:30N 37°57' E 023°35'0 0.0
2017-Jul-17 09:00N 37°57' E 023°35'0 0.0
2017-Jul-17 08:30N 37°57' E 023°35'0 0.0
2017-Jul-17 08:00N 37°57' E 023°35'0 0.1
2017-Jul-17 07:30N 37°57' E 023°35'3 6.7
2017-Jul-17 07:00N 37°54' E 023°33'1 1.8
2017-Jul-17 06:30N 37°53' E 023°33'0 0.0
2017-Jul-17 06:00N 37°53' E 023°33'0 0.1
2017-Jul-17 05:30N 37°53' E 023°33'0 0.2
2017-Jul-17 05:00N 37°53' E 023°33'1 1.7
2017-Jul-17 04:30N 37°54' E 023°33'2 3.2
2017-Jul-17 04:00N 37°56' E 023°34'0 0.1
2017-Jul-17 03:30N 37°56' E 023°34'0 0.1
2017-Jul-17 03:00N 37°56' E 023°34'0 0.1
2017-Jul-17 02:30N 37°56' E 023°34'0 0.1
2017-Jul-17 02:00N 37°56' E 023°34'0 0.0
2017-Jul-17 01:30N 37°56' E 023°34'0 0.0
2017-Jul-17 01:00N 37°56' E 023°34'0 0.0
2017-Jul-17 00:30N 37°56' E 023°34'0 0.0
2017-Jul-17 00:00N 37°56' E 023°34'0 0.0
2017-Jul-16 23:30N 37°56' E 023°34'0 0.0
2017-Jul-16 23:00N 37°56' E 023°34'0 0.0
2017-Jul-16 22:30N 37°56' E 023°34'0 0.0
2017-Jul-16 22:00N 37°56' E 023°34'0 0.0
2017-Jul-16 21:30N 37°56' E 023°34'0 0.0
2017-Jul-16 21:00N 37°56' E 023°34'0 0.0
2017-Jul-16 20:30N 37°56' E 023°34'0 0.0
2017-Jul-16 20:00N 37°56' E 023°34'0 0.0
2017-Jul-16 19:30N 37°56' E 023°34'0 0.0
2017-Jul-16 19:00N 37°56' E 023°34'0 0.0
2017-Jul-16 18:30N 37°56' E 023°34'0 0.0
2017-Jul-16 18:00N 37°56' E 023°34'0 0.1
2017-Jul-16 17:30N 37°56' E 023°34'0 0.1
2017-Jul-16 17:00N 37°56' E 023°34'0 0.0
2017-Jul-16 16:30N 37°56' E 023°34'0 0.0
2017-Jul-16 16:00N 37°56' E 023°34'0 0.0
2017-Jul-16 15:30N 37°56' E 023°34'0 0.0
2017-Jul-16 15:00N 37°56' E 023°34'0 0.0
2017-Jul-16 14:30N 37°56' E 023°34'0 0.0
2017-Jul-16 14:00N 37°56' E 023°34'0 0.0
2017-Jul-16 13:30N 37°56' E 023°34'0 0.0
2017-Jul-16 13:00N 37°56' E 023°34'0 0.1
2017-Jul-16 12:30N 37°56' E 023°34'0 0.0
2017-Jul-16 12:00N 37°56' E 023°34'0 0.0
2017-Jul-16 11:30N 37°56' E 023°34'0 0.0
2017-Jul-16 11:00N 37°56' E 023°34'0 0.0
2017-Jul-16 10:30N 37°56' E 023°34'0 0.0
2017-Jul-16 10:00N 37°56' E 023°34'0 0.0
2017-Jul-16 09:30N 37°56' E 023°34'0 0.0
2017-Jul-16 09:00N 37°56' E 023°34'0 0.0
2017-Jul-16 08:30N 37°56' E 023°34'0 0.0
2017-Jul-16 08:00N 37°56' E 023°34'0 0.0
2017-Jul-16 07:30N 37°56' E 023°34'0 0.0
2017-Jul-16 07:00N 37°56' E 023°34'0 0.9
2017-Jul-16 06:30N 37°55' E 023°33'0 0.4
2017-Jul-16 06:00N 37°55' E 023°33'0 0.0
2017-Jul-16 05:30N 37°55' E 023°33'0 0.9
2017-Jul-16 05:00N 37°56' E 023°34'0 0.0
2017-Jul-16 04:30N 37°56' E 023°34'0 0.0
2017-Jul-16 04:00N 37°56' E 023°34'0 0.0
2017-Jul-16 03:30N 37°56' E 023°34'0 0.0
2017-Jul-16 03:00N 37°56' E 023°34'0 0.1
2017-Jul-16 02:30N 37°56' E 023°34'3 6.0
2017-Jul-16 02:00N 37°53' E 023°32'2 3.2
2017-Jul-16 01:30N 37°52' E 023°31'0 0.0
2017-Jul-16 01:00N 37°52' E 023°31'0 0.1
2017-Jul-16 00:30N 37°52' E 023°31'0 0.0
2017-Jul-16 00:00N 37°52' E 023°31'0 0.1
2017-Jul-15 23:30N 37°52' E 023°31'0 0.0
2017-Jul-15 23:00N 37°52' E 023°31'0 0.2
2017-Jul-15 22:30N 37°52' E 023°31'0 0.3
2017-Jul-15 22:00N 37°52' E 023°31'0 0.0
2017-Jul-15 21:30N 37°52' E 023°31'0 0.1
2017-Jul-15 21:00N 37°52' E 023°31'0 0.3
2017-Jul-15 20:30N 37°52' E 023°31'3 5.7
2017-Jul-15 20:00N 37°54' E 023°33'1 2.9
2017-Jul-15 19:30N 37°56' E 023°34'0 0.0
2017-Jul-15 19:00N 37°56' E 023°34'0 0.0
2017-Jul-15 18:30N 37°56' E 023°34'0 0.0
2017-Jul-15 18:00N 37°56' E 023°34'0 0.0
2017-Jul-15 17:30N 37°56' E 023°34'0 0.0
2017-Jul-15 17:00N 37°56' E 023°34'0 0.1
2017-Jul-15 16:30N 37°56' E 023°34'0 0.1
2017-Jul-15 16:00N 37°56' E 023°34'0 0.0
2017-Jul-15 15:30N 37°56' E 023°34'0 0.0
2017-Jul-15 15:00N 37°56' E 023°34'0 0.0
2017-Jul-15 14:00N 37°56' E 023°34'0 0.0
2017-Jul-15 13:30N 37°56' E 023°34'0 0.0
2017-Jul-15 13:00N 37°56' E 023°34'0 0.0
2017-Jul-15 12:30N 37°56' E 023°34'0 0.0
2017-Jul-15 12:00N 37°56' E 023°34'0 0.0
2017-Jul-15 11:30N 37°56' E 023°34'0 0.0
2017-Jul-15 11:00N 37°56' E 023°34'0 0.1
2017-Jul-15 10:30N 37°56' E 023°34'0 0.1
2017-Jul-15 10:00N 37°56' E 023°34'0 0.1
2017-Jul-15 09:30N 37°56' E 023°34'0 0.1
2017-Jul-15 09:00N 37°56' E 023°34'1 1.6
2017-Jul-15 08:30N 37°56' E 023°34'4 7.1
2017-Jul-15 08:00N 37°60' E 023°33'3 6.0
2017-Jul-15 07:30N 38°02' E 023°36'0 0.1
2017-Jul-15 07:00N 38°02' E 023°36'0 0.0
2017-Jul-15 06:30N 38°02' E 023°36'0 0.0
2017-Jul-15 06:00N 38°02' E 023°36'0 0.0
2017-Jul-15 05:30N 38°02' E 023°36'0 0.0
2017-Jul-15 05:00N 38°02' E 023°36'0 0.0
2017-Jul-15 04:30N 38°02' E 023°36'0 0.0
2017-Jul-15 04:00N 38°02' E 023°36'0 0.0
2017-Jul-15 03:30N 38°02' E 023°36'0 0.0
2017-Jul-15 03:00N 38°02' E 023°36'0 0.0
2017-Jul-15 02:30N 38°02' E 023°36'0 0.0
2017-Jul-15 02:00N 38°02' E 023°36'0 0.0
2017-Jul-15 01:30N 38°02' E 023°36'0 0.0
2017-Jul-15 01:00N 38°02' E 023°36'0 0.0
2017-Jul-15 00:30N 38°02' E 023°36'0 0.0
2017-Jul-15 00:00N 38°02' E 023°36'0 0.0
2017-Jul-14 23:30N 38°02' E 023°36'0 0.0
2017-Jul-14 23:00N 38°02' E 023°36'0 0.0
2017-Jul-14 22:30N 38°02' E 023°36'0 0.0
2017-Jul-14 22:00N 38°02' E 023°36'0 0.0
2017-Jul-14 21:30N 38°02' E 023°36'0 0.0
2017-Jul-14 21:00N 38°02' E 023°36'1 2.0
2017-Jul-14 20:30N 38°01' E 023°34'0 0.0
2017-Jul-14 20:00N 38°01' E 023°34'0 0.0
2017-Jul-14 19:30N 38°01' E 023°34'0 0.0
2017-Jul-14 19:00N 38°01' E 023°34'0 0.0
2017-Jul-14 18:30N 38°01' E 023°34'0 0.0
2017-Jul-14 18:00N 38°01' E 023°34'0 0.0
2017-Jul-14 17:30N 38°01' E 023°34'0 0.0
2017-Jul-14 17:00N 38°01' E 023°34'0 0.0
2017-Jul-14 16:30N 38°01' E 023°34'0 0.0
2017-Jul-14 16:00N 38°01' E 023°34'0 0.0
2017-Jul-14 15:30N 38°01' E 023°34'0 0.0
2017-Jul-14 15:00N 38°01' E 023°34'0 0.0
2017-Jul-14 14:30N 38°01' E 023°34'0 0.0
2017-Jul-14 14:00N 38°01' E 023°34'0 0.0
2017-Jul-14 13:30N 38°01' E 023°34'0 0.0
2017-Jul-14 13:00N 38°01' E 023°34'0 0.0
2017-Jul-14 12:30N 38°01' E 023°34'0 0.1
2017-Jul-14 12:00N 38°01' E 023°34'0 0.0
2017-Jul-14 11:30N 38°01' E 023°34'0 0.0
2017-Jul-14 11:00N 38°01' E 023°34'0 0.0
2017-Jul-14 10:30N 38°01' E 023°34'1 3.0
2017-Jul-14 10:00N 38°00' E 023°33'4 7.3
2017-Jul-14 09:30N 37°57' E 023°35'3 6.0
2017-Jul-14 09:00N 37°54' E 023°32'0 0.0
2017-Jul-14 08:30N 37°54' E 023°33'0 0.0
2017-Jul-14 08:00N 37°54' E 023°33'0 0.0
2017-Jul-14 07:30N 37°54' E 023°33'0 0.0
2017-Jul-14 07:00N 37°54' E 023°33'0 0.0
2017-Jul-14 06:30N 37°54' E 023°33'0 0.0
2017-Jul-14 06:00N 37°54' E 023°33'0 0.8
2017-Jul-14 05:30N 37°54' E 023°33'3 6.5
2017-Jul-14 05:00N 37°58' E 023°33'3 6.6
2017-Jul-14 04:30N 38°01' E 023°32'0 0.0
2017-Jul-14 04:00N 38°01' E 023°32'0 0.0
2017-Jul-14 03:30N 38°01' E 023°32'0 0.0
2017-Jul-14 03:00N 38°01' E 023°32'0 0.1
2017-Jul-14 02:30N 38°01' E 023°32'0 0.0
2017-Jul-14 02:00N 38°01' E 023°32'0 0.0
2017-Jul-14 01:30N 38°01' E 023°32'0 0.0
2017-Jul-14 01:00N 38°01' E 023°32'0 0.0
2017-Jul-14 00:30N 38°01' E 023°32'0 0.0
2017-Jul-14 00:00N 38°01' E 023°32'0 0.0
2017-Jul-13 23:30N 38°01' E 023°32'0 0.0
2017-Jul-13 23:00N 38°01' E 023°32'0 0.1
2017-Jul-13 22:30N 38°01' E 023°32'3 5.8
2017-Jul-13 22:00N 38°02' E 023°36'0 0.1
2017-Jul-13 21:30N 38°02' E 023°36'0 0.0
2017-Jul-13 21:00N 38°02' E 023°36'0 0.0
2017-Jul-13 20:30N 38°02' E 023°36'0 0.0
2017-Jul-13 20:00N 38°02' E 023°36'0 0.0
2017-Jul-13 19:30N 38°02' E 023°36'0 0.0
2017-Jul-13 19:00N 38°02' E 023°36'0 0.0
2017-Jul-13 18:30N 38°02' E 023°36'0 0.0
2017-Jul-13 18:00N 38°02' E 023°36'0 0.0
2017-Jul-13 17:30N 38°02' E 023°36'1 1.0
2017-Jul-13 17:00N 38°02' E 023°35'0 0.6
2017-Jul-13 16:30N 38°01' E 023°35'0 0.0
2017-Jul-13 16:00N 38°01' E 023°35'0 0.0
2017-Jul-13 15:30N 38°01' E 023°35'0 0.0
2017-Jul-13 15:00N 38°01' E 023°35'0 0.0
2017-Jul-13 14:30N 38°01' E 023°35'0 0.0
2017-Jul-13 14:00N 38°01' E 023°35'0 0.1
2017-Jul-13 13:30N 38°01' E 023°35'0 0.0
2017-Jul-13 13:00N 38°01' E 023°35'0 0.0
2017-Jul-13 12:30N 38°01' E 023°35'0 0.0
2017-Jul-13 12:00N 38°01' E 023°35'2 4.8
2017-Jul-13 11:30N 37°59' E 023°33'4 7.7
2017-Jul-13 11:00N 37°56' E 023°34'1 1.7
2017-Jul-13 10:30N 37°55' E 023°33'0 0.0
2017-Jul-13 10:00N 37°55' E 023°33'0 0.0
2017-Jul-13 09:30N 37°55' E 023°33'0 0.0
2017-Jul-13 09:00N 37°55' E 023°33'0 0.0
2017-Jul-13 08:30N 37°55' E 023°33'0 0.1
2017-Jul-13 08:00N 37°55' E 023°33'0 0.0
2017-Jul-13 07:30N 37°55' E 023°33'0 0.0
2017-Jul-13 07:00N 37°55' E 023°33'0 0.1
2017-Jul-13 06:30N 37°55' E 023°33'0 0.0
2017-Jul-13 06:00N 37°55' E 023°33'0 0.0
2017-Jul-13 05:30N 37°55' E 023°33'0 0.0
2017-Jul-13 05:00N 37°55' E 023°33'0 0.0
2017-Jul-13 04:30N 37°55' E 023°33'0 0.0
2017-Jul-13 04:00N 37°55' E 023°33'0 0.1
2017-Jul-13 03:30N 37°55' E 023°33'0 0.0
2017-Jul-13 03:00N 37°55' E 023°33'0 0.0
2017-Jul-13 02:30N 37°55' E 023°33'0 0.0
2017-Jul-13 02:00N 37°55' E 023°33'0 0.0
2017-Jul-13 01:30N 37°55' E 023°33'0 0.0
2017-Jul-13 01:00N 37°55' E 023°33'0 0.1
2017-Jul-13 00:30N 37°55' E 023°33'0 0.0
2017-Jul-13 00:00N 37°55' E 023°33'0 0.0
2017-Jul-12 23:30N 37°55' E 023°33'0 0.0
2017-Jul-12 23:00N 37°55' E 023°33'0 0.0
2017-Jul-12 22:30N 37°55' E 023°33'0 0.0
2017-Jul-12 22:00N 37°55' E 023°33'0 0.0
2017-Jul-12 21:30N 37°55' E 023°33'0 0.0
2017-Jul-12 21:00N 37°55' E 023°33'0 0.1
2017-Jul-12 20:30N 37°55' E 023°33'0 0.0
2017-Jul-12 20:00N 37°55' E 023°33'0 0.0
2017-Jul-12 19:30N 37°55' E 023°33'0 0.0
2017-Jul-12 19:00N 37°55' E 023°33'0 0.0
2017-Jul-12 18:30N 37°55' E 023°33'0 0.0
2017-Jul-12 18:00N 37°55' E 023°33'0 0.0
2017-Jul-12 17:30N 37°55' E 023°33'0 0.0
2017-Jul-12 17:00N 37°55' E 023°33'0 0.1
2017-Jul-12 16:30N 37°55' E 023°33'0 0.0
2017-Jul-12 16:00N 37°55' E 023°33'0 0.0
2017-Jul-12 15:30N 37°55' E 023°33'0 0.0
2017-Jul-12 15:00N 37°55' E 023°33'0 0.0
2017-Jul-12 14:00N 37°55' E 023°33'0 0.0
2017-Jul-12 13:30N 37°55' E 023°33'0 0.0
2017-Jul-12 13:00N 37°55' E 023°33'0 0.0
2017-Jul-12 12:30N 37°55' E 023°33'0 0.0
2017-Jul-12 12:00N 37°55' E 023°33'0 0.0
2017-Jul-12 11:30N 37°55' E 023°33'0 0.0
2017-Jul-12 11:00N 37°55' E 023°33'0 0.0
2017-Jul-12 10:30N 37°55' E 023°33'0 0.0
2017-Jul-12 10:00N 37°55' E 023°33'0 0.0
2017-Jul-12 09:30N 37°55' E 023°33'0 0.0
2017-Jul-12 09:00N 37°55' E 023°33'0 0.0
2017-Jul-12 08:30N 37°55' E 023°33'0 0.0
2017-Jul-12 08:00N 37°55' E 023°33'0 0.0
2017-Jul-12 07:30N 37°55' E 023°33'0 0.0
2017-Jul-12 07:00N 37°55' E 023°33'0 0.0
2017-Jul-12 06:30N 37°55' E 023°33'0 0.0
2017-Jul-12 06:00N 37°55' E 023°33'0 0.0
2017-Jul-12 05:30N 37°55' E 023°33'0 0.1
2017-Jul-12 05:00N 37°55' E 023°33'0 0.1
2017-Jul-12 04:30N 37°55' E 023°33'0 0.0
2017-Jul-12 04:00N 37°55' E 023°33'0 0.0
2017-Jul-12 03:30N 37°55' E 023°33'0 0.0
2017-Jul-12 03:00N 37°55' E 023°33'0 0.1
2017-Jul-12 02:30N 37°55' E 023°33'2 4.4
2017-Jul-12 02:00N 37°57' E 023°35'1 1.7
2017-Jul-12 01:30N 37°57' E 023°36'0 0.0
2017-Jul-12 01:00N 37°57' E 023°36'0 0.0
2017-Jul-12 00:30N 37°57' E 023°36'0 0.0
2017-Jul-12 00:00N 37°57' E 023°36'0 0.0
2017-Jul-11 23:30N 37°57' E 023°36'0 0.0
2017-Jul-11 23:00N 37°57' E 023°36'0 0.0
2017-Jul-11 22:30N 37°57' E 023°36'0 0.0
2017-Jul-11 22:00N 37°57' E 023°36'0 0.0
2017-Jul-11 21:30N 37°57' E 023°36'0 0.0
2017-Jul-11 21:00N 37°57' E 023°36'0 0.1
2017-Jul-11 20:30N 37°57' E 023°36'2 3.5
2017-Jul-11 20:00N 37°56' E 023°34'0 0.8
2017-Jul-11 19:30N 37°56' E 023°34'0 0.0
2017-Jul-11 19:00N 37°56' E 023°34'  
Track history (hours):
 
Tides and Currents Weather Stations Pressure Air Temp Water Temp Dewpoint Dewpoint Depression Visibility Wind Speed Wind Dir Waves Ship Positions

Menalon

Last reported at 2017-Jul-21 19:00 UTC. Time now 2017-Jul-21 19:00 UTC.
Position N 37°53' E 023°32'.

Length 83 m; draft 4.2 m.

Type: Tanker. MMSI: 239741000.

Date/timePositionNaut miles runAvg speedWind from/ knotsBaromVisibWave heightAir tempDewpointWater temp
2017-Jul-21 19:00N 37°53' E 023°32'0 0.0
2017-Jul-21 18:30N 37°53' E 023°32'0 0.0
2017-Jul-21 18:00N 37°53' E 023°32'0 0.0
2017-Jul-21 17:30N 37°53' E 023°32'0 0.0
2017-Jul-21 17:00N 37°53' E 023°32'1 2.0
2017-Jul-21 16:30N 37°54' E 023°33'2 4.5
2017-Jul-21 16:00N 37°56' E 023°34'0 0.0
2017-Jul-21 15:30N 37°56' E 023°34'0 0.0
2017-Jul-21 15:00N 37°56' E 023°34'0 0.0
2017-Jul-21 14:30N 37°56' E 023°34'0 0.0
2017-Jul-21 14:00N 37°56' E 023°34'0 0.0
2017-Jul-21 13:30N 37°56' E 023°34'0 0.0
2017-Jul-21 13:00N 37°56' E 023°34'0 0.0
2017-Jul-21 12:30N 37°56' E 023°34'0 0.0
2017-Jul-21 12:00N 37°56' E 023°34'0 0.0
2017-Jul-21 11:30N 37°56' E 023°34'0 0.0
2017-Jul-21 11:00N 37°56' E 023°34'0 0.0
2017-Jul-21 10:30N 37°56' E 023°34'0 0.0
2017-Jul-21 10:00N 37°56' E 023°34'0 0.0
2017-Jul-21 09:30N 37°56' E 023°34'0 0.0
2017-Jul-21 09:00N 37°56' E 023°34'0 0.1
2017-Jul-21 08:30N 37°56' E 023°34'0 0.0
2017-Jul-21 08:00N 37°56' E 023°34'0 0.0
2017-Jul-21 07:30N 37°56' E 023°34'0 0.0
2017-Jul-21 07:00N 37°56' E 023°34'0 0.0
2017-Jul-21 06:30N 37°56' E 023°34'0 0.0
2017-Jul-21 06:00N 37°56' E 023°34'1 2.8
2017-Jul-21 05:30N 37°57' E 023°34'4 8.0
2017-Jul-21 05:00N 38°01' E 023°33'1 1.7
2017-Jul-21 04:30N 38°02' E 023°32'0 0.2
2017-Jul-21 04:00N 38°02' E 023°32'3 5.3
2017-Jul-21 03:30N 38°02' E 023°36'0 0.1
2017-Jul-21 03:00N 38°02' E 023°36'0 0.0
2017-Jul-21 02:30N 38°02' E 023°36'0 0.0
2017-Jul-21 02:00N 38°02' E 023°36'0 0.0
2017-Jul-21 01:30N 38°02' E 023°36'0 0.0
2017-Jul-21 01:00N 38°02' E 023°36'0 0.0
2017-Jul-21 00:30N 38°02' E 023°36'0 0.0
2017-Jul-21 00:00N 38°02' E 023°36'0 0.0
2017-Jul-20 23:30N 38°02' E 023°36'0 0.0
2017-Jul-20 23:00N 38°02' E 023°36'0 0.0
2017-Jul-20 22:30N 38°02' E 023°36'0 0.0
2017-Jul-20 22:00N 38°02' E 023°36'0 0.0
2017-Jul-20 21:30N 38°02' E 023°36'1 2.2
2017-Jul-20 21:00N 38°02' E 023°34'2 3.7
2017-Jul-20 20:30N 38°02' E 023°32'0 0.0
2017-Jul-20 20:00N 38°02' E 023°32'0 0.0
2017-Jul-20 19:30N 38°02' E 023°32'0 0.1
2017-Jul-20 19:00N 38°02' E 023°32'0 0.0
2017-Jul-20 18:30N 38°02' E 023°32'0 0.0
2017-Jul-20 18:00N 38°02' E 023°32'0 0.0
2017-Jul-20 17:30N 38°02' E 023°32'0 0.0
2017-Jul-20 17:00N 38°02' E 023°32'0 0.0
2017-Jul-20 16:30N 38°02' E 023°32'0 0.0
2017-Jul-20 16:00N 38°02' E 023°32'0 0.0
2017-Jul-20 15:30N 38°02' E 023°32'0 0.0
2017-Jul-20 15:00N 38°02' E 023°32'3 3.2
2017-Jul-20 14:00N 37°59' E 023°33'3 6.1
2017-Jul-20 13:30N 37°56' E 023°34'0 0.4
2017-Jul-20 13:00N 37°55' E 023°34'0 0.0
2017-Jul-20 12:30N 37°55' E 023°34'0 0.0
2017-Jul-20 12:00N 37°55' E 023°34'0 0.0
2017-Jul-20 11:30N 37°55' E 023°34'0 0.0
2017-Jul-20 11:00N 37°55' E 023°34'0 0.0
2017-Jul-20 10:30N 37°55' E 023°34'0 0.0
2017-Jul-20 10:00N 37°55' E 023°34'0 0.0
2017-Jul-20 09:30N 37°55' E 023°34'0 0.0
2017-Jul-20 09:00N 37°55' E 023°34'0 0.0
2017-Jul-20 08:30N 37°55' E 023°34'0 0.0
2017-Jul-20 08:00N 37°55' E 023°34'0 0.0
2017-Jul-20 07:30N 37°55' E 023°34'0 0.0
2017-Jul-20 07:00N 37°55' E 023°34'0 0.0
2017-Jul-20 06:30N 37°55' E 023°34'0 0.0
2017-Jul-20 06:00N 37°55' E 023°34'0 0.0
2017-Jul-20 05:30N 37°55' E 023°34'0 0.0
2017-Jul-20 05:00N 37°55' E 023°34'0 0.0
2017-Jul-20 04:30N 37°55' E 023°34'0 0.0
2017-Jul-20 04:00N 37°55' E 023°34'0 0.0
2017-Jul-20 03:30N 37°55' E 023°34'0 0.0
2017-Jul-20 03:00N 37°55' E 023°34'0 0.0
2017-Jul-20 02:30N 37°55' E 023°34'1 2.8
2017-Jul-20 02:00N 37°54' E 023°33'4 8.7
2017-Jul-20 01:30N 37°50' E 023°31'0 0.2
2017-Jul-20 01:00N 37°50' E 023°31'0 0.0
2017-Jul-20 00:30N 37°50' E 023°31'0 0.0
2017-Jul-20 00:00N 37°50' E 023°31'0 0.0
2017-Jul-19 23:30N 37°50' E 023°31'0 0.0
2017-Jul-19 23:00N 37°50' E 023°31'0 0.1
2017-Jul-19 22:30N 37°50' E 023°31'0 0.0
2017-Jul-19 22:00N 37°50' E 023°31'0 0.0
2017-Jul-19 21:30N 37°50' E 023°31'0 0.0
2017-Jul-19 21:00N 37°50' E 023°31'0 0.1
2017-Jul-19 20:30N 37°50' E 023°31'0 0.0
2017-Jul-19 20:00N 37°50' E 023°31'0 0.0
2017-Jul-19 19:30N 37°50' E 023°31'0 0.0
2017-Jul-19 19:00N 37°50' E 023°31'0 0.0
2017-Jul-19 18:30N 37°50' E 023°31'0 0.0
2017-Jul-19 18:00N 37°50' E 023°31'0 0.0
2017-Jul-19 17:30N 37°50' E 023°31'0 0.0
2017-Jul-19 17:00N 37°50' E 023°31'0 0.0
2017-Jul-19 16:30N 37°50' E 023°31'0 0.0
2017-Jul-19 16:00N 37°50' E 023°31'0 0.0
2017-Jul-19 15:30N 37°50' E 023°31'0 0.0
2017-Jul-19 15:00N 37°50' E 023°31'0 0.0
2017-Jul-19 14:30N 37°50' E 023°31'0 0.0
2017-Jul-19 14:00N 37°50' E 023°31'0 0.0
2017-Jul-19 13:30N 37°50' E 023°31'0 0.1
2017-Jul-19 13:00N 37°50' E 023°31'0 0.4
2017-Jul-19 12:30N 37°50' E 023°31'4 8.5
2017-Jul-19 12:00N 37°54' E 023°33'4 8.4
2017-Jul-19 11:30N 37°57' E 023°36'0 0.2
2017-Jul-19 11:00N 37°57' E 023°36'0 0.0
2017-Jul-19 10:30N 37°57' E 023°36'0 0.0
2017-Jul-19 10:00N 37°57' E 023°36'0 0.0
2017-Jul-19 09:30N 37°57' E 023°36'0 0.0
2017-Jul-19 09:00N 37°57' E 023°36'0 0.0
2017-Jul-19 08:30N 37°57' E 023°36'0 0.0
2017-Jul-19 08:00N 37°57' E 023°36'0 0.8
2017-Jul-19 07:30N 37°57' E 023°36'3 5.5
2017-Jul-19 07:00N 37°58' E 023°33'4 7.4
2017-Jul-19 06:30N 38°02' E 023°35'0 0.3
2017-Jul-19 06:00N 38°02' E 023°35'0 0.0
2017-Jul-19 05:30N 38°02' E 023°35'0 0.0
2017-Jul-19 05:00N 38°02' E 023°35'0 0.0
2017-Jul-19 04:30N 38°02' E 023°35'0 0.0
2017-Jul-19 04:00N 38°02' E 023°35'0 0.0
2017-Jul-19 03:30N 38°02' E 023°35'0 0.0
2017-Jul-19 03:00N 38°02' E 023°35'0 0.0
2017-Jul-19 02:30N 38°02' E 023°35'1 1.2
2017-Jul-19 02:00N 38°02' E 023°36'0 0.0
2017-Jul-19 01:30N 38°02' E 023°36'0 0.0
2017-Jul-19 01:00N 38°02' E 023°36'0 0.0
2017-Jul-19 00:30N 38°02' E 023°36'0 0.0
2017-Jul-19 00:00N 38°02' E 023°36'0 0.0
2017-Jul-18 23:30N 38°02' E 023°36'0 0.0
2017-Jul-18 23:00N 38°02' E 023°36'0 0.0
2017-Jul-18 22:30N 38°02' E 023°36'0 0.0
2017-Jul-18 22:00N 38°02' E 023°36'0 0.0
2017-Jul-18 21:30N 38°02' E 023°36'0 0.0
2017-Jul-18 21:00N 38°02' E 023°36'0 0.6
2017-Jul-18 20:30N 38°02' E 023°35'1 1.4
2017-Jul-18 20:00N 38°01' E 023°35'0 0.1
2017-Jul-18 19:30N 38°01' E 023°35'0 0.0
2017-Jul-18 19:00N 38°01' E 023°35'0 0.0
2017-Jul-18 18:30N 38°01' E 023°35'0 0.0
2017-Jul-18 18:00N 38°01' E 023°35'0 0.0
2017-Jul-18 17:30N 38°01' E 023°35'0 0.0
2017-Jul-18 17:00N 38°01' E 023°35'0 0.0
2017-Jul-18 16:30N 38°01' E 023°35'0 0.0
2017-Jul-18 16:00N 38°01' E 023°35'0 0.0
2017-Jul-18 15:30N 38°01' E 023°35'0 0.0
2017-Jul-18 15:00N 38°01' E 023°35'0 0.0
2017-Jul-18 14:00N 38°01' E 023°35'0 0.2
2017-Jul-18 13:30N 38°01' E 023°35'0 0.4
2017-Jul-18 13:00N 38°01' E 023°35'0 0.0
2017-Jul-18 12:30N 38°01' E 023°35'0 0.0
2017-Jul-18 12:00N 38°01' E 023°35'0 0.0
2017-Jul-18 11:30N 38°01' E 023°35'0 0.1
2017-Jul-18 11:00N 38°01' E 023°35'3 5.7
2017-Jul-18 10:30N 37°59' E 023°33'3 5.8
2017-Jul-18 10:00N 37°56' E 023°34'0 0.8
2017-Jul-18 09:30N 37°56' E 023°34'0 0.0
2017-Jul-18 09:00N 37°56' E 023°34'0 0.0
2017-Jul-18 08:30N 37°56' E 023°34'0 0.0
2017-Jul-18 08:00N 37°56' E 023°34'0 0.0
2017-Jul-18 07:30N 37°56' E 023°34'0 0.0
2017-Jul-18 07:00N 37°56' E 023°34'0 0.0
2017-Jul-18 06:30N 37°56' E 023°34'0 0.0
2017-Jul-18 06:00N 37°56' E 023°34'0 0.0
2017-Jul-18 05:30N 37°56' E 023°34'0 0.0
2017-Jul-18 05:00N 37°56' E 023°34'0 0.0
2017-Jul-18 04:30N 37°56' E 023°34'0 0.0
2017-Jul-18 04:00N 37°56' E 023°34'0 0.0
2017-Jul-18 03:30N 37°56' E 023°34'0 0.0
2017-Jul-18 03:00N 37°56' E 023°34'0 0.0
2017-Jul-18 02:30N 37°56' E 023°34'0 0.0
2017-Jul-18 02:00N 37°56' E 023°34'0 0.0
2017-Jul-18 01:30N 37°56' E 023°34'0 0.0
2017-Jul-18 01:00N 37°56' E 023°34'0 0.0
2017-Jul-18 00:30N 37°56' E 023°34'0 0.0
2017-Jul-18 00:00N 37°56' E 023°34'0 0.0
2017-Jul-17 23:30N 37°56' E 023°34'0 0.0
2017-Jul-17 23:00N 37°56' E 023°34'0 0.0
2017-Jul-17 22:30N 37°56' E 023°34'0 0.0
2017-Jul-17 22:00N 37°56' E 023°34'0 0.0
2017-Jul-17 21:30N 37°56' E 023°34'0 0.0
2017-Jul-17 21:00N 37°56' E 023°34'0 0.0
2017-Jul-17 20:30N 37°56' E 023°34'0 0.0
2017-Jul-17 20:00N 37°56' E 023°34'0 0.0
2017-Jul-17 19:30N 37°56' E 023°34'0 0.0
2017-Jul-17 19:00N 37°56' E 023°34'0 0.0
2017-Jul-17 18:30N 37°56' E 023°34'0 0.0
2017-Jul-17 18:00N 37°56' E 023°34'0 0.0
2017-Jul-17 17:30N 37°56' E 023°34'0 0.0
2017-Jul-17 17:00N 37°56' E 023°34'0 0.0
2017-Jul-17 16:30N 37°56' E 023°34'0 0.0
2017-Jul-17 16:00N 37°56' E 023°34'0 0.1
2017-Jul-17 15:30N 37°56' E 023°34'0 0.1
2017-Jul-17 15:00N 37°56' E 023°34'0 0.1
2017-Jul-17 14:30N 37°56' E 023°34'2 3.8
2017-Jul-17 14:00N 37°57' E 023°35'0 0.0
2017-Jul-17 13:30N 37°57' E 023°35'0 0.0
2017-Jul-17 13:00N 37°57' E 023°35'0 0.0
2017-Jul-17 12:30N 37°57' E 023°35'0 0.0
2017-Jul-17 12:00N 37°57' E 023°35'0 0.0
2017-Jul-17 11:30N 37°57' E 023°35'0 0.0
2017-Jul-17 11:00N 37°57' E 023°35'0 0.0
2017-Jul-17 10:30N 37°57' E 023°35'0 0.0
2017-Jul-17 10:00N 37°57' E 023°35'0 0.0
2017-Jul-17 09:30N 37°57' E 023°35'0 0.0
2017-Jul-17 09:00N 37°57' E 023°35'0 0.0
2017-Jul-17 08:30N 37°57' E 023°35'0 0.0
2017-Jul-17 08:00N 37°57' E 023°35'0 0.1
2017-Jul-17 07:30N 37°57' E 023°35'3 6.7
2017-Jul-17 07:00N 37°54' E 023°33'1 1.8
2017-Jul-17 06:30N 37°53' E 023°33'0 0.0
2017-Jul-17 06:00N 37°53' E 023°33'0 0.1
2017-Jul-17 05:30N 37°53' E 023°33'0 0.2
2017-Jul-17 05:00N 37°53' E 023°33'1 1.7
2017-Jul-17 04:30N 37°54' E 023°33'2 3.2
2017-Jul-17 04:00N 37°56' E 023°34'0 0.1
2017-Jul-17 03:30N 37°56' E 023°34'0 0.1
2017-Jul-17 03:00N 37°56' E 023°34'0 0.1
2017-Jul-17 02:30N 37°56' E 023°34'0 0.1
2017-Jul-17 02:00N 37°56' E 023°34'0 0.0
2017-Jul-17 01:30N 37°56' E 023°34'0 0.0
2017-Jul-17 01:00N 37°56' E 023°34'0 0.0
2017-Jul-17 00:30N 37°56' E 023°34'0 0.0
2017-Jul-17 00:00N 37°56' E 023°34'0 0.0
2017-Jul-16 23:30N 37°56' E 023°34'0 0.0
2017-Jul-16 23:00N 37°56' E 023°34'0 0.0
2017-Jul-16 22:30N 37°56' E 023°34'0 0.0
2017-Jul-16 22:00N 37°56' E 023°34'0 0.0
2017-Jul-16 21:30N 37°56' E 023°34'0 0.0
2017-Jul-16 21:00N 37°56' E 023°34'0 0.0
2017-Jul-16 20:30N 37°56' E 023°34'0 0.0
2017-Jul-16 20:00N 37°56' E 023°34'0 0.0
2017-Jul-16 19:30N 37°56' E 023°34'0 0.0
2017-Jul-16 19:00N 37°56' E 023°34'0 0.0
2017-Jul-16 18:30N 37°56' E 023°34'0 0.0
2017-Jul-16 18:00N 37°56' E 023°34'0 0.1
2017-Jul-16 17:30N 37°56' E 023°34'0 0.1
2017-Jul-16 17:00N 37°56' E 023°34'0 0.0
2017-Jul-16 16:30N 37°56' E 023°34'0 0.0
2017-Jul-16 16:00N 37°56' E 023°34'0 0.0
2017-Jul-16 15:30N 37°56' E 023°34'0 0.0
2017-Jul-16 15:00N 37°56' E 023°34'0 0.0
2017-Jul-16 14:30N 37°56' E 023°34'0 0.0
2017-Jul-16 14:00N 37°56' E 023°34'0 0.0
2017-Jul-16 13:30N 37°56' E 023°34'0 0.0
2017-Jul-16 13:00N 37°56' E 023°34'0 0.1
2017-Jul-16 12:30N 37°56' E 023°34'0 0.0
2017-Jul-16 12:00N 37°56' E 023°34'0 0.0
2017-Jul-16 11:30N 37°56' E 023°34'0 0.0
2017-Jul-16 11:00N 37°56' E 023°34'0 0.0
2017-Jul-16 10:30N 37°56' E 023°34'0 0.0
2017-Jul-16 10:00N 37°56' E 023°34'0 0.0
2017-Jul-16 09:30N 37°56' E 023°34'0 0.0
2017-Jul-16 09:00N 37°56' E 023°34'0 0.0
2017-Jul-16 08:30N 37°56' E 023°34'0 0.0
2017-Jul-16 08:00N 37°56' E 023°34'0 0.0
2017-Jul-16 07:30N 37°56' E 023°34'0 0.0
2017-Jul-16 07:00N 37°56' E 023°34'0 0.9
2017-Jul-16 06:30N 37°55' E 023°33'0 0.4
2017-Jul-16 06:00N 37°55' E 023°33'0 0.0
2017-Jul-16 05:30N 37°55' E 023°33'0 0.9
2017-Jul-16 05:00N 37°56' E 023°34'0 0.0
2017-Jul-16 04:30N 37°56' E 023°34'0 0.0
2017-Jul-16 04:00N 37°56' E 023°34'0 0.0
2017-Jul-16 03:30N 37°56' E 023°34'0 0.0
2017-Jul-16 03:00N 37°56' E 023°34'0 0.1
2017-Jul-16 02:30N 37°56' E 023°34'3 6.0
2017-Jul-16 02:00N 37°53' E 023°32'2 3.2
2017-Jul-16 01:30N 37°52' E 023°31'0 0.0
2017-Jul-16 01:00N 37°52' E 023°31'0 0.1
2017-Jul-16 00:30N 37°52' E 023°31'0 0.0
2017-Jul-16 00:00N 37°52' E 023°31'0 0.1
2017-Jul-15 23:30N 37°52' E 023°31'0 0.0
2017-Jul-15 23:00N 37°52' E 023°31'0 0.2
2017-Jul-15 22:30N 37°52' E 023°31'0 0.3
2017-Jul-15 22:00N 37°52' E 023°31'0 0.0
2017-Jul-15 21:30N 37°52' E 023°31'0 0.1
2017-Jul-15 21:00N 37°52' E 023°31'0 0.3
2017-Jul-15 20:30N 37°52' E 023°31'3 5.7
2017-Jul-15 20:00N 37°54' E 023°33'1 2.9
2017-Jul-15 19:30N 37°56' E 023°34'0 0.0
2017-Jul-15 19:00N 37°56' E 023°34'0 0.0
2017-Jul-15 18:30N 37°56' E 023°34'0 0.0
2017-Jul-15 18:00N 37°56' E 023°34'0 0.0
2017-Jul-15 17:30N 37°56' E 023°34'0 0.0
2017-Jul-15 17:00N 37°56' E 023°34'0 0.1
2017-Jul-15 16:30N 37°56' E 023°34'0 0.1
2017-Jul-15 16:00N 37°56' E 023°34'0 0.0
2017-Jul-15 15:30N 37°56' E 023°34'0 0.0
2017-Jul-15 15:00N 37°56' E 023°34'0 0.0
2017-Jul-15 14:00N 37°56' E 023°34'0 0.0
2017-Jul-15 13:30N 37°56' E 023°34'0 0.0
2017-Jul-15 13:00N 37°56' E 023°34'0 0.0
2017-Jul-15 12:30N 37°56' E 023°34'0 0.0
2017-Jul-15 12:00N 37°56' E 023°34'0 0.0
2017-Jul-15 11:30N 37°56' E 023°34'0 0.0
2017-Jul-15 11:00N 37°56' E 023°34'0 0.1
2017-Jul-15 10:30N 37°56' E 023°34'0 0.1
2017-Jul-15 10:00N 37°56' E 023°34'0 0.1
2017-Jul-15 09:30N 37°56' E 023°34'0 0.1
2017-Jul-15 09:00N 37°56' E 023°34'1 1.6
2017-Jul-15 08:30N 37°56' E 023°34'4 7.1
2017-Jul-15 08:00N 37°60' E 023°33'3 6.0
2017-Jul-15 07:30N 38°02' E 023°36'0 0.1
2017-Jul-15 07:00N 38°02' E 023°36'0 0.0
2017-Jul-15 06:30N 38°02' E 023°36'0 0.0
2017-Jul-15 06:00N 38°02' E 023°36'0 0.0
2017-Jul-15 05:30N 38°02' E 023°36'0 0.0
2017-Jul-15 05:00N 38°02' E 023°36'0 0.0
2017-Jul-15 04:30N 38°02' E 023°36'0 0.0
2017-Jul-15 04:00N 38°02' E 023°36'0 0.0
2017-Jul-15 03:30N 38°02' E 023°36'0 0.0
2017-Jul-15 03:00N 38°02' E 023°36'0 0.0
2017-Jul-15 02:30N 38°02' E 023°36'0 0.0
2017-Jul-15 02:00N 38°02' E 023°36'0 0.0
2017-Jul-15 01:30N 38°02' E 023°36'0 0.0
2017-Jul-15 01:00N 38°02' E 023°36'0 0.0
2017-Jul-15 00:30N 38°02' E 023°36'0 0.0
2017-Jul-15 00:00N 38°02' E 023°36'0 0.0
2017-Jul-14 23:30N 38°02' E 023°36'0 0.0
2017-Jul-14 23:00N 38°02' E 023°36'0 0.0
2017-Jul-14 22:30N 38°02' E 023°36'0 0.0
2017-Jul-14 22:00N 38°02' E 023°36'0 0.0
2017-Jul-14 21:30N 38°02' E 023°36'0 0.0
2017-Jul-14 21:00N 38°02' E 023°36'1 2.0
2017-Jul-14 20:30N 38°01' E 023°34'0 0.0
2017-Jul-14 20:00N 38°01' E 023°34'0 0.0
2017-Jul-14 19:30N 38°01' E 023°34'0 0.0
2017-Jul-14 19:00N 38°01' E 023°34'0 0.0
2017-Jul-14 18:30N 38°01' E 023°34'0 0.0
2017-Jul-14 18:00N 38°01' E 023°34'0 0.0
2017-Jul-14 17:30N 38°01' E 023°34'0 0.0
2017-Jul-14 17:00N 38°01' E 023°34'0 0.0
2017-Jul-14 16:30N 38°01' E 023°34'0 0.0
2017-Jul-14 16:00N 38°01' E 023°34'0 0.0
2017-Jul-14 15:30N 38°01' E 023°34'0 0.0
2017-Jul-14 15:00N 38°01' E 023°34'0 0.0
2017-Jul-14 14:30N 38°01' E 023°34'0 0.0
2017-Jul-14 14:00N 38°01' E 023°34'0 0.0
2017-Jul-14 13:30N 38°01' E 023°34'0 0.0
2017-Jul-14 13:00N 38°01' E 023°34'0 0.0
2017-Jul-14 12:30N 38°01' E 023°34'0 0.1
2017-Jul-14 12:00N 38°01' E 023°34'0 0.0
2017-Jul-14 11:30N 38°01' E 023°34'0 0.0
2017-Jul-14 11:00N 38°01' E 023°34'0 0.0
2017-Jul-14 10:30N 38°01' E 023°34'1 3.0
2017-Jul-14 10:00N 38°00' E 023°33'4 7.3
2017-Jul-14 09:30N 37°57' E 023°35'3 6.0
2017-Jul-14 09:00N 37°54' E 023°32'0 0.0
2017-Jul-14 08:30N 37°54' E 023°33'0 0.0
2017-Jul-14 08:00N 37°54' E 023°33'0 0.0
2017-Jul-14 07:30N 37°54' E 023°33'0 0.0
2017-Jul-14 07:00N 37°54' E 023°33'0 0.0
2017-Jul-14 06:30N 37°54' E 023°33'0 0.0
2017-Jul-14 06:00N 37°54' E 023°33'0 0.8
2017-Jul-14 05:30N 37°54' E 023°33'3 6.5
2017-Jul-14 05:00N 37°58' E 023°33'3 6.6
2017-Jul-14 04:30N 38°01' E 023°32'0 0.0
2017-Jul-14 04:00N 38°01' E 023°32'0 0.0
2017-Jul-14 03:30N 38°01' E 023°32'0 0.0
2017-Jul-14 03:00N 38°01' E 023°32'0 0.1
2017-Jul-14 02:30N 38°01' E 023°32'0 0.0
2017-Jul-14 02:00N 38°01' E 023°32'0 0.0
2017-Jul-14 01:30N 38°01' E 023°32'0 0.0
2017-Jul-14 01:00N 38°01' E 023°32'0 0.0
2017-Jul-14 00:30N 38°01' E 023°32'0 0.0
2017-Jul-14 00:00N 38°01' E 023°32'0 0.0
2017-Jul-13 23:30N 38°01' E 023°32'0 0.0
2017-Jul-13 23:00N 38°01' E 023°32'0 0.1
2017-Jul-13 22:30N 38°01' E 023°32'3 5.8
2017-Jul-13 22:00N 38°02' E 023°36'0 0.1
2017-Jul-13 21:30N 38°02' E 023°36'0 0.0
2017-Jul-13 21:00N 38°02' E 023°36'0 0.0
2017-Jul-13 20:30N 38°02' E 023°36'0 0.0
2017-Jul-13 20:00N 38°02' E 023°36'0 0.0
2017-Jul-13 19:30N 38°02' E 023°36'0 0.0
2017-Jul-13 19:00N 38°02' E 023°36'0 0.0
2017-Jul-13 18:30N 38°02' E 023°36'0 0.0
2017-Jul-13 18:00N 38°02' E 023°36'0 0.0
2017-Jul-13 17:30N 38°02' E 023°36'1 1.0
2017-Jul-13 17:00N 38°02' E 023°35'0 0.6
2017-Jul-13 16:30N 38°01' E 023°35'0 0.0
2017-Jul-13 16:00N 38°01' E 023°35'0 0.0
2017-Jul-13 15:30N 38°01' E 023°35'0 0.0
2017-Jul-13 15:00N 38°01' E 023°35'0 0.0
2017-Jul-13 14:30N 38°01' E 023°35'0 0.0
2017-Jul-13 14:00N 38°01' E 023°35'0 0.1
2017-Jul-13 13:30N 38°01' E 023°35'0 0.0
2017-Jul-13 13:00N 38°01' E 023°35'0 0.0
2017-Jul-13 12:30N 38°01' E 023°35'0 0.0
2017-Jul-13 12:00N 38°01' E 023°35'2 4.8
2017-Jul-13 11:30N 37°59' E 023°33'4 7.7
2017-Jul-13 11:00N 37°56' E 023°34'1 1.7
2017-Jul-13 10:30N 37°55' E 023°33'0 0.0
2017-Jul-13 10:00N 37°55' E 023°33'0 0.0
2017-Jul-13 09:30N 37°55' E 023°33'0 0.0
2017-Jul-13 09:00N 37°55' E 023°33'0 0.0
2017-Jul-13 08:30N 37°55' E 023°33'0 0.1
2017-Jul-13 08:00N 37°55' E 023°33'0 0.0
2017-Jul-13 07:30N 37°55' E 023°33'0 0.0
2017-Jul-13 07:00N 37°55' E 023°33'0 0.1
2017-Jul-13 06:30N 37°55' E 023°33'0 0.0
2017-Jul-13 06:00N 37°55' E 023°33'0 0.0
2017-Jul-13 05:30N 37°55' E 023°33'0 0.0
2017-Jul-13 05:00N 37°55' E 023°33'0 0.0
2017-Jul-13 04:30N 37°55' E 023°33'0 0.0
2017-Jul-13 04:00N 37°55' E 023°33'0 0.1
2017-Jul-13 03:30N 37°55' E 023°33'0 0.0
2017-Jul-13 03:00N 37°55' E 023°33'0 0.0
2017-Jul-13 02:30N 37°55' E 023°33'0 0.0
2017-Jul-13 02:00N 37°55' E 023°33'0 0.0
2017-Jul-13 01:30N 37°55' E 023°33'0 0.0
2017-Jul-13 01:00N 37°55' E 023°33'0 0.1
2017-Jul-13 00:30N 37°55' E 023°33'0 0.0
2017-Jul-13 00:00N 37°55' E 023°33'0 0.0
2017-Jul-12 23:30N 37°55' E 023°33'0 0.0
2017-Jul-12 23:00N 37°55' E 023°33'0 0.0
2017-Jul-12 22:30N 37°55' E 023°33'0 0.0
2017-Jul-12 22:00N 37°55' E 023°33'0 0.0
2017-Jul-12 21:30N 37°55' E 023°33'0 0.0
2017-Jul-12 21:00N 37°55' E 023°33'0 0.1
2017-Jul-12 20:30N 37°55' E 023°33'0 0.0
2017-Jul-12 20:00N 37°55' E 023°33'0 0.0
2017-Jul-12 19:30N 37°55' E 023°33'0 0.0
2017-Jul-12 19:00N 37°55' E 023°33'0 0.0
2017-Jul-12 18:30N 37°55' E 023°33'0 0.0
2017-Jul-12 18:00N 37°55' E 023°33'0 0.0
2017-Jul-12 17:30N 37°55' E 023°33'0 0.0
2017-Jul-12 17:00N 37°55' E 023°33'0 0.1
2017-Jul-12 16:30N 37°55' E 023°33'0 0.0
2017-Jul-12 16:00N 37°55' E 023°33'0 0.0
2017-Jul-12 15:30N 37°55' E 023°33'0 0.0
2017-Jul-12 15:00N 37°55' E 023°33'0 0.0
2017-Jul-12 14:00N 37°55' E 023°33'0 0.0
2017-Jul-12 13:30N 37°55' E 023°33'0 0.0
2017-Jul-12 13:00N 37°55' E 023°33'0 0.0
2017-Jul-12 12:30N 37°55' E 023°33'0 0.0
2017-Jul-12 12:00N 37°55' E 023°33'0 0.0
2017-Jul-12 11:30N 37°55' E 023°33'0 0.0
2017-Jul-12 11:00N 37°55' E 023°33'0 0.0
2017-Jul-12 10:30N 37°55' E 023°33'0 0.0
2017-Jul-12 10:00N 37°55' E 023°33'0 0.0
2017-Jul-12 09:30N 37°55' E 023°33'0 0.0
2017-Jul-12 09:00N 37°55' E 023°33'0 0.0
2017-Jul-12 08:30N 37°55' E 023°33'0 0.0
2017-Jul-12 08:00N 37°55' E 023°33'0 0.0
2017-Jul-12 07:30N 37°55' E 023°33'0 0.0
2017-Jul-12 07:00N 37°55' E 023°33'0 0.0
2017-Jul-12 06:30N 37°55' E 023°33'0 0.0
2017-Jul-12 06:00N 37°55' E 023°33'0 0.0
2017-Jul-12 05:30N 37°55' E 023°33'0 0.1
2017-Jul-12 05:00N 37°55' E 023°33'0 0.1
2017-Jul-12 04:30N 37°55' E 023°33'0 0.0
2017-Jul-12 04:00N 37°55' E 023°33'0 0.0
2017-Jul-12 03:30N 37°55' E 023°33'0 0.0
2017-Jul-12 03:00N 37°55' E 023°33'0 0.1
2017-Jul-12 02:30N 37°55' E 023°33'2 4.4
2017-Jul-12 02:00N 37°57' E 023°35'1 1.7
2017-Jul-12 01:30N 37°57' E 023°36'0 0.0
2017-Jul-12 01:00N 37°57' E 023°36'0 0.0
2017-Jul-12 00:30N 37°57' E 023°36'0 0.0
2017-Jul-12 00:00N 37°57' E 023°36'0 0.0
2017-Jul-11 23:30N 37°57' E 023°36'0 0.0
2017-Jul-11 23:00N 37°57' E 023°36'0 0.0
2017-Jul-11 22:30N 37°57' E 023°36'0 0.0
2017-Jul-11 22:00N 37°57' E 023°36'0 0.0
2017-Jul-11 21:30N 37°57' E 023°36'0 0.0
2017-Jul-11 21:00N 37°57' E 023°36'0 0.1
2017-Jul-11 20:30N 37°57' E 023°36'2 3.5
2017-Jul-11 20:00N 37°56' E 023°34'0 0.8
2017-Jul-11 19:30N 37°56' E 023°34'0 0.0
2017-Jul-11 19:00N 37°56' E 023°34'  

Dump ship's entire track history